Chilco, Idaho
Current Conditions -  °F | °C
As of 10:35 PM on Friday 24 Oct 2014 (Local Time) from KCOE Reporting Station
Overcast Overcast  
Wind Chill: 41°   Ceiling: 5000
Heat Index: 46°   Visibility: 10mi
Dew Point: 43°   Wind: 12mph
Humidity: 87%   Direction: 30°NNE
Pressure: 29.98"   Gusts: NA
Location:  47.9325°N, 116.647°W
Report Text: KCOE 250535Z AUTO 03010KT 10SM OVC050 08/06 A2998 RMK AO1
Loading
Personal Weather Stations






























Interactive Weather Map
Tropical Storm Tracking
New forecast layout! Learn more

10-Day Weather Forecast

Advertisements
Track Severe Weather on mobile